sensor_id;sensor_type;location;lat;lon;timestamp;temperature;humidity
33382;DHT22;21342;48.786;9.166;2022-08-26T00:00:57;23.40;99.90
33382;DHT22;21342;48.786;9.166;2022-08-26T00:03:24;23.20;99.90
33382;DHT22;21342;48.786;9.166;2022-08-26T00:05:51;23.10;99.90
33382;DHT22;21342;48.786;9.166;2022-08-26T00:08:20;23.00;99.90
33382;DHT22;21342;48.786;9.166;2022-08-26T00:10:48;22.90;99.90
33382;DHT22;21342;48.786;9.166;2022-08-26T00:13:15;22.70;99.90
33382;DHT22;21342;48.786;9.166;2022-08-26T00:15:43;22.60;99.90
33382;DHT22;21342;48.786;9.166;2022-08-26T00:18:12;22.80;99.90
33382;DHT22;21342;48.786;9.166;2022-08-26T00:20:39;22.80;99.90
33382;DHT22;21342;48.786;9.166;2022-08-26T00:23:06;22.80;99.90
33382;DHT22;21342;48.786;9.166;2022-08-26T00:25:35;22.90;99.90
33382;DHT22;21342;48.786;9.166;2022-08-26T00:28:03;23.00;99.90
33382;DHT22;21342;48.786;9.166;2022-08-26T00:30:31;23.00;99.90
33382;DHT22;21342;48.786;9.166;2022-08-26T00:32:59;22.90;99.90
33382;DHT22;21342;48.786;9.166;2022-08-26T00:35:28;22.70;99.90
33382;DHT22;21342;48.786;9.166;2022-08-26T00:37:55;22.50;99.90
33382;DHT22;21342;48.786;9.166;2022-08-26T00:40:26;22.60;99.90
33382;DHT22;21342;48.786;9.166;2022-08-26T00:42:55;22.70;99.90
33382;DHT22;21342;48.786;9.166;2022-08-26T00:45:23;22.80;99.90
33382;DHT22;21342;48.786;9.166;2022-08-26T00:47:53;23.00;99.90
33382;DHT22;21342;48.786;9.166;2022-08-26T00:50:26;23.20;99.90
33382;DHT22;21342;48.786;9.166;2022-08-26T00:52:57;23.30;99.90
33382;DHT22;21342;48.786;9.166;2022-08-26T00:55:30;23.30;99.90
33382;DHT22;21342;48.786;9.166;2022-08-26T00:58:00;23.30;99.90
33382;DHT22;21342;48.786;9.166;2022-08-26T01:00:30;23.30;99.90
33382;DHT22;21342;48.786;9.166;2022-08-26T01:03:00;23.30;99.90
33382;DHT22;21342;48.786;9.166;2022-08-26T01:05:28;23.40;99.90
33382;DHT22;21342;48.786;9.166;2022-08-26T01:07:55;23.40;99.90
33382;DHT22;21342;48.786;9.166;2022-08-26T01:10:25;23.50;99.90
33382;DHT22;21342;48.786;9.166;2022-08-26T01:12:55;23.40;99.90
33382;DHT22;21342;48.786;9.166;2022-08-26T01:15:28;23.30;99.90
33382;DHT22;21342;48.786;9.166;2022-08-26T01:17:57;23.10;99.90
33382;DHT22;21342;48.786;9.166;2022-08-26T01:20:28;22.80;99.90
33382;DHT22;21342;48.786;9.166;2022-08-26T01:23:00;22.80;99.90
33382;DHT22;21342;48.786;9.166;2022-08-26T01:25:31;22.90;99.90
33382;DHT22;21342;48.786;9.166;2022-08-26T01:28:03;22.70;99.90
33382;DHT22;21342;48.786;9.166;2022-08-26T01:30:32;22.50;99.90
33382;DHT22;21342;48.786;9.166;2022-08-26T01:33:02;22.30;99.90
33382;DHT22;21342;48.786;9.166;2022-08-26T01:35:30;22.30;99.90
33382;DHT22;21342;48.786;9.166;2022-08-26T01:37:59;22.30;99.90
33382;DHT22;21342;48.786;9.166;2022-08-26T01:40:31;22.40;99.90
33382;DHT22;21342;48.786;9.166;2022-08-26T01:43:00;22.50;99.90
33382;DHT22;21342;48.786;9.166;2022-08-26T01:45:30;22.70;99.90
33382;DHT22;21342;48.786;9.166;2022-08-26T01:48:01;22.80;99.90
33382;DHT22;21342;48.786;9.166;2022-08-26T01:50:33;22.30;99.90
33382;DHT22;21342;48.786;9.166;2022-08-26T01:53:08;22.10;99.90
33382;DHT22;21342;48.786;9.166;2022-08-26T01:55:39;22.20;99.90
33382;DHT22;21342;48.786;9.166;2022-08-26T01:58:10;22.30;99.90
33382;DHT22;21342;48.786;9.166;2022-08-26T02:00:39;22.50;99.90
33382;DHT22;21342;48.786;9.166;2022-08-26T02:03:07;22.50;99.90
33382;DHT22;21342;48.786;9.166;2022-08-26T02:05:44;22.30;99.90
33382;DHT22;21342;48.786;9.166;2022-08-26T02:08:14;22.20;99.90
33382;DHT22;21342;48.786;9.166;2022-08-26T02:10:43;22.20;99.90
33382;DHT22;21342;48.786;9.166;2022-08-26T02:13:11;22.00;99.90
33382;DHT22;21342;48.786;9.166;2022-08-26T02:15:40;22.00;99.90
33382;DHT22;21342;48.786;9.166;2022-08-26T02:18:09;22.10;99.90
33382;DHT22;21342;48.786;9.166;2022-08-26T02:20:37;22.30;99.90
33382;DHT22;21342;48.786;9.166;2022-08-26T02:23:05;22.40;99.90
33382;DHT22;21342;48.786;9.166;2022-08-26T02:25:44;22.50;99.90
33382;DHT22;21342;48.786;9.166;2022-08-26T02:28:13;22.40;99.90
33382;DHT22;21342;48.786;9.166;2022-08-26T02:30:42;22.30;99.90
33382;DHT22;21342;48.786;9.166;2022-08-26T02:33:09;22.40;99.90
33382;DHT22;21342;48.786;9.166;2022-08-26T02:35:37;22.30;99.90
33382;DHT22;21342;48.786;9.166;2022-08-26T02:38:07;22.10;99.90
33382;DHT22;21342;48.786;9.166;2022-08-26T02:40:38;21.90;99.90
33382;DHT22;21342;48.786;9.166;2022-08-26T02:43:07;21.80;99.90
33382;DHT22;21342;48.786;9.166;2022-08-26T02:45:34;21.80;99.90
33382;DHT22;21342;48.786;9.166;2022-08-26T02:48:07;21.90;99.90
33382;DHT22;21342;48.786;9.166;2022-08-26T02:50:34;21.80;99.90
33382;DHT22;21342;48.786;9.166;2022-08-26T02:53:02;21.70;99.90
33382;DHT22;21342;48.786;9.166;2022-08-26T02:55:29;21.60;99.90
33382;DHT22;21342;48.786;9.166;2022-08-26T02:57:58;21.60;99.90
33382;DHT22;21342;48.786;9.166;2022-08-26T03:00:26;21.60;99.90
33382;DHT22;21342;48.786;9.166;2022-08-26T03:02:54;21.60;99.90
33382;DHT22;21342;48.786;9.166;2022-08-26T03:05:21;21.80;99.90
33382;DHT22;21342;48.786;9.166;2022-08-26T03:07:49;21.90;99.90
33382;DHT22;21342;48.786;9.166;2022-08-26T03:10:17;22.10;99.90
33382;DHT22;21342;48.786;9.166;2022-08-26T03:12:45;22.20;99.90
33382;DHT22;21342;48.786;9.166;2022-08-26T03:15:16;22.20;99.90
33382;DHT22;21342;48.786;9.166;2022-08-26T03:17:44;22.20;99.90
33382;DHT22;21342;48.786;9.166;2022-08-26T03:20:12;22.20;99.90
33382;DHT22;21342;48.786;9.166;2022-08-26T03:22:39;21.80;99.90
33382;DHT22;21342;48.786;9.166;2022-08-26T03:25:09;21.70;99.90
33382;DHT22;21342;48.786;9.166;2022-08-26T03:27:36;21.50;99.90
33382;DHT22;21342;48.786;9.166;2022-08-26T03:30:05;21.50;99.90
33382;DHT22;21342;48.786;9.166;2022-08-26T03:32:51;21.50;99.90
33382;DHT22;21342;48.786;9.166;2022-08-26T03:35:18;21.80;99.90
33382;DHT22;21342;48.786;9.166;2022-08-26T03:37:46;21.90;99.90
33382;DHT22;21342;48.786;9.166;2022-08-26T03:40:13;21.80;99.90
33382;DHT22;21342;48.786;9.166;2022-08-26T03:42:40;21.70;99.90
33382;DHT22;21342;48.786;9.166;2022-08-26T03:45:10;21.70;99.90
33382;DHT22;21342;48.786;9.166;2022-08-26T03:47:38;21.70;99.90
33382;DHT22;21342;48.786;9.166;2022-08-26T03:50:10;21.70;99.90
33382;DHT22;21342;48.786;9.166;2022-08-26T03:52:37;21.60;99.90
33382;DHT22;21342;48.786;9.166;2022-08-26T03:55:06;21.50;99.90
33382;DHT22;21342;48.786;9.166;2022-08-26T03:57:33;21.50;99.90
33382;DHT22;21342;48.786;9.166;2022-08-26T04:00:00;21.50;99.90
33382;DHT22;21342;48.786;9.166;2022-08-26T04:02:27;21.60;99.90
33382;DHT22;21342;48.786;9.166;2022-08-26T04:04:54;21.60;99.90
33382;DHT22;21342;48.786;9.166;2022-08-26T04:07:23;21.40;99.90
33382;DHT22;21342;48.786;9.166;2022-08-26T04:09:53;21.50;99.90
33382;DHT22;21342;48.786;9.166;2022-08-26T04:12:21;21.80;99.90
33382;DHT22;21342;48.786;9.166;2022-08-26T04:14:48;21.80;99.90
33382;DHT22;21342;48.786;9.166;2022-08-26T04:17:15;21.60;99.90
33382;DHT22;21342;48.786;9.166;2022-08-26T04:19:42;21.60;99.90
33382;DHT22;21342;48.786;9.166;2022-08-26T04:22:09;21.80;99.90
33382;DHT22;21342;48.786;9.166;2022-08-26T04:24:38;21.90;99.90
33382;DHT22;21342;48.786;9.166;2022-08-26T04:27:05;21.70;99.90
33382;DHT22;21342;48.786;9.166;2022-08-26T04:29:33;21.90;99.90
33382;DHT22;21342;48.786;9.166;2022-08-26T04:32:00;21.60;99.90
33382;DHT22;21342;48.786;9.166;2022-08-26T04:34:28;21.50;99.90
33382;DHT22;21342;48.786;9.166;2022-08-26T04:36:55;21.20;99.90
33382;DHT22;21342;48.786;9.166;2022-08-26T04:39:23;21.50;99.90
33382;DHT22;21342;48.786;9.166;2022-08-26T04:41:52;21.60;99.90
33382;DHT22;21342;48.786;9.166;2022-08-26T04:44:21;21.30;99.90
33382;DHT22;21342;48.786;9.166;2022-08-26T04:46:49;21.10;99.90
33382;DHT22;21342;48.786;9.166;2022-08-26T04:49:16;21.10;99.90
33382;DHT22;21342;48.786;9.166;2022-08-26T04:51:44;21.20;99.90
33382;DHT22;21342;48.786;9.166;2022-08-26T04:54:12;21.10;99.90
33382;DHT22;21342;48.786;9.166;2022-08-26T04:56:41;21.20;99.90
33382;DHT22;21342;48.786;9.166;2022-08-26T04:59:11;21.30;99.90
33382;DHT22;21342;48.786;9.166;2022-08-26T05:01:41;21.40;99.90
33382;DHT22;21342;48.786;9.166;2022-08-26T05:04:08;21.50;99.90
33382;DHT22;21342;48.786;9.166;2022-08-26T05:06:36;21.50;99.90
33382;DHT22;21342;48.786;9.166;2022-08-26T05:09:03;21.50;99.90
33382;DHT22;21342;48.786;9.166;2022-08-26T05:11:30;21.30;99.90
33382;DHT22;21342;48.786;9.166;2022-08-26T05:13:58;21.40;99.90
33382;DHT22;21342;48.786;9.166;2022-08-26T05:16:26;21.40;99.90
33382;DHT22;21342;48.786;9.166;2022-08-26T05:18:54;21.40;99.90
33382;DHT22;21342;48.786;9.166;2022-08-26T05:21:23;21.20;99.90
33382;DHT22;21342;48.786;9.166;2022-08-26T05:23:51;21.20;99.90
33382;DHT22;21342;48.786;9.166;2022-08-26T05:26:20;21.40;99.90
33382;DHT22;21342;48.786;9.166;2022-08-26T05:28:47;21.60;99.90
33382;DHT22;21342;48.786;9.166;2022-08-26T05:31:16;21.60;99.90
33382;DHT22;21342;48.786;9.166;2022-08-26T05:33:45;21.60;99.90
33382;DHT22;21342;48.786;9.166;2022-08-26T05:36:15;21.50;99.90
33382;DHT22;21342;48.786;9.166;2022-08-26T05:38:43;21.60;99.90
33382;DHT22;21342;48.786;9.166;2022-08-26T05:41:15;21.60;99.90
33382;DHT22;21342;48.786;9.166;2022-08-26T05:43:43;21.50;99.90
33382;DHT22;21342;48.786;9.166;2022-08-26T05:46:11;21.60;99.90
33382;DHT22;21342;48.786;9.166;2022-08-26T05:48:38;21.50;99.90
33382;DHT22;21342;48.786;9.166;2022-08-26T05:51:10;21.60;99.90
33382;DHT22;21342;48.786;9.166;2022-08-26T05:53:39;21.60;99.90
33382;DHT22;21342;48.786;9.166;2022-08-26T05:56:08;21.60;99.90
33382;DHT22;21342;48.786;9.166;2022-08-26T05:58:37;21.50;99.90
33382;DHT22;21342;48.786;9.166;2022-08-26T06:01:08;21.50;99.90
33382;DHT22;21342;48.786;9.166;2022-08-26T06:03:39;21.50;99.90
33382;DHT22;21342;48.786;9.166;2022-08-26T06:06:11;21.60;99.90
33382;DHT22;21342;48.786;9.166;2022-08-26T06:08:39;21.60;99.90
33382;DHT22;21342;48.786;9.166;2022-08-26T06:11:08;21.70;99.90
33382;DHT22;21342;48.786;9.166;2022-08-26T06:13:38;21.60;99.90
33382;DHT22;21342;48.786;9.166;2022-08-26T06:16:07;21.70;99.90
33382;DHT22;21342;48.786;9.166;2022-08-26T06:18:38;21.80;99.90
33382;DHT22;21342;48.786;9.166;2022-08-26T06:21:15;21.90;99.90
33382;DHT22;21342;48.786;9.166;2022-08-26T06:23:44;21.90;99.90
33382;DHT22;21342;48.786;9.166;2022-08-26T06:26:29;21.90;99.90
33382;DHT22;21342;48.786;9.166;2022-08-26T06:28:56;21.90;99.90
33382;DHT22;21342;48.786;9.166;2022-08-26T06:31:25;21.80;99.90
33382;DHT22;21342;48.786;9.166;2022-08-26T06:33:52;21.80;99.90
33382;DHT22;21342;48.786;9.166;2022-08-26T06:36:22;21.90;99.90
33382;DHT22;21342;48.786;9.166;2022-08-26T06:38:51;22.00;99.90
33382;DHT22;21342;48.786;9.166;2022-08-26T06:41:20;22.00;99.90
33382;DHT22;21342;48.786;9.166;2022-08-26T06:43:47;22.00;99.90
33382;DHT22;21342;48.786;9.166;2022-08-26T06:46:17;22.10;99.90
33382;DHT22;21342;48.786;9.166;2022-08-26T06:48:45;22.20;99.90
33382;DHT22;21342;48.786;9.166;2022-08-26T06:51:15;22.30;99.90
33382;DHT22;21342;48.786;9.166;2022-08-26T06:53:46;22.20;99.90
33382;DHT22;21342;48.786;9.166;2022-08-26T06:56:16;22.10;99.90
33382;DHT22;21342;48.786;9.166;2022-08-26T06:58:43;22.50;99.90
33382;DHT22;21342;48.786;9.166;2022-08-26T07:01:15;22.50;99.90
33382;DHT22;21342;48.786;9.166;2022-08-26T07:03:42;22.40;99.90
33382;DHT22;21342;48.786;9.166;2022-08-26T07:06:10;22.40;99.90
33382;DHT22;21342;48.786;9.166;2022-08-26T07:08:37;22.40;99.90
33382;DHT22;21342;48.786;9.166;2022-08-26T07:11:08;22.20;99.90
33382;DHT22;21342;48.786;9.166;2022-08-26T07:13:36;22.40;99.90
33382;DHT22;21342;48.786;9.166;2022-08-26T07:16:04;22.30;99.90
33382;DHT22;21342;48.786;9.166;2022-08-26T07:18:32;22.40;99.90
33382;DHT22;21342;48.786;9.166;2022-08-26T07:21:00;22.30;99.90
33382;DHT22;21342;48.786;9.166;2022-08-26T07:23:28;22.30;99.90
33382;DHT22;21342;48.786;9.166;2022-08-26T07:25:55;22.30;99.90
33382;DHT22;21342;48.786;9.166;2022-08-26T07:28:24;22.30;99.90
33382;DHT22;21342;48.786;9.166;2022-08-26T07:30:51;22.40;99.90
33382;DHT22;21342;48.786;9.166;2022-08-26T07:33:18;22.60;99.90
33382;DHT22;21342;48.786;9.166;2022-08-26T07:35:45;22.50;99.90
33382;DHT22;21342;48.786;9.166;2022-08-26T07:38:12;22.70;99.90
33382;DHT22;21342;48.786;9.166;2022-08-26T07:40:40;22.70;99.90
33382;DHT22;21342;48.786;9.166;2022-08-26T07:43:11;22.80;99.90
33382;DHT22;21342;48.786;9.166;2022-08-26T07:45:40;22.70;99.90
33382;DHT22;21342;48.786;9.166;2022-08-26T07:48:07;22.80;99.90
33382;DHT22;21342;48.786;9.166;2022-08-26T07:50:35;22.80;99.90
33382;DHT22;21342;48.786;9.166;2022-08-26T07:53:02;22.80;99.90
33382;DHT22;21342;48.786;9.166;2022-08-26T07:55:30;23.00;99.90
33382;DHT22;21342;48.786;9.166;2022-08-26T07:57:57;23.00;99.90
33382;DHT22;21342;48.786;9.166;2022-08-26T08:00:25;23.20;99.90
33382;DHT22;21342;48.786;9.166;2022-08-26T08:02:54;23.20;99.90
33382;DHT22;21342;48.786;9.166;2022-08-26T08:05:22;23.40;99.90
33382;DHT22;21342;48.786;9.166;2022-08-26T08:07:49;23.50;99.90
33382;DHT22;21342;48.786;9.166;2022-08-26T08:10:19;23.60;99.90
33382;DHT22;21342;48.786;9.166;2022-08-26T08:12:47;23.60;99.90
33382;DHT22;21342;48.786;9.166;2022-08-26T08:15:16;23.70;99.90
33382;DHT22;21342;48.786;9.166;2022-08-26T08:17:44;23.80;99.90
33382;DHT22;21342;48.786;9.166;2022-08-26T08:20:13;24.00;99.90
33382;DHT22;21342;48.786;9.166;2022-08-26T08:22:40;24.30;99.90
33382;DHT22;21342;48.786;9.166;2022-08-26T08:25:10;24.40;99.90
33382;DHT22;21342;48.786;9.166;2022-08-26T08:27:39;24.60;99.90
33382;DHT22;21342;48.786;9.166;2022-08-26T08:30:08;24.70;99.90
33382;DHT22;21342;48.786;9.166;2022-08-26T08:32:36;25.10;99.90
33382;DHT22;21342;48.786;9.166;2022-08-26T08:35:05;25.40;99.90
33382;DHT22;21342;48.786;9.166;2022-08-26T08:37:34;25.90;99.90
33382;DHT22;21342;48.786;9.166;2022-08-26T08:40:03;26.70;99.90
33382;DHT22;21342;48.786;9.166;2022-08-26T08:42:38;27.50;99.90
33382;DHT22;21342;48.786;9.166;2022-08-26T08:45:12;28.50;98.50
33382;DHT22;21342;48.786;9.166;2022-08-26T08:47:43;28.80;97.50
33382;DHT22;21342;48.786;9.166;2022-08-26T08:50:20;29.20;95.80
33382;DHT22;21342;48.786;9.166;2022-08-26T08:52:56;29.80;94.60
33382;DHT22;21342;48.786;9.166;2022-08-26T08:55:28;30.50;93.30
33382;DHT22;21342;48.786;9.166;2022-08-26T08:58:02;30.90;92.30
33382;DHT22;21342;48.786;9.166;2022-08-26T09:00:36;31.40;90.90
33382;DHT22;21342;48.786;9.166;2022-08-26T09:03:10;31.30;90.40
33382;DHT22;21342;48.786;9.166;2022-08-26T09:05:43;31.30;88.70
33382;DHT22;21342;48.786;9.166;2022-08-26T09:08:22;31.20;89.20
33382;DHT22;21342;48.786;9.166;2022-08-26T09:10:54;31.10;88.30
33382;DHT22;21342;48.786;9.166;2022-08-26T09:13:22;31.00;87.70
33382;DHT22;21342;48.786;9.166;2022-08-26T09:16:00;30.80;87.70
33382;DHT22;21342;48.786;9.166;2022-08-26T09:18:40;30.40;88.20
33382;DHT22;21342;48.786;9.166;2022-08-26T09:21:12;30.20;87.70
33382;DHT22;21342;48.786;9.166;2022-08-26T09:23:42;29.90;89.80
33382;DHT22;21342;48.786;9.166;2022-08-26T09:28:46;29.60;89.30
33382;DHT22;21342;48.786;9.166;2022-08-26T09:31:20;29.10;90.20
33382;DHT22;21342;48.786;9.166;2022-08-26T09:33:48;28.60;90.60
33382;DHT22;21342;48.786;9.166;2022-08-26T09:36:19;28.70;91.40
33382;DHT22;21342;48.786;9.166;2022-08-26T09:38:50;28.70;91.20
33382;DHT22;21342;48.786;9.166;2022-08-26T09:41:24;29.10;91.80
33382;DHT22;21342;48.786;9.166;2022-08-26T09:44:09;29.30;90.60
33382;DHT22;21342;48.786;9.166;2022-08-26T09:46:39;29.50;89.70
33382;DHT22;21342;48.786;9.166;2022-08-26T09:49:30;30.00;90.50
33382;DHT22;21342;48.786;9.166;2022-08-26T09:52:10;30.20;87.90
33382;DHT22;21342;48.786;9.166;2022-08-26T09:54:42;30.20;87.40
33382;DHT22;21342;48.786;9.166;2022-08-26T09:57:18;30.50;88.40
33382;DHT22;21342;48.786;9.166;2022-08-26T09:59:46;30.80;87.90
33382;DHT22;21342;48.786;9.166;2022-08-26T10:02:33;30.90;87.50
33382;DHT22;21342;48.786;9.166;2022-08-26T10:05:02;31.20;87.70
33382;DHT22;21342;48.786;9.166;2022-08-26T10:07:38;31.30;85.30
33382;DHT22;21342;48.786;9.166;2022-08-26T10:10:12;31.90;85.30
33382;DHT22;21342;48.786;9.166;2022-08-26T10:12:46;32.50;82.90
33382;DHT22;21342;48.786;9.166;2022-08-26T10:15:15;32.80;82.70
33382;DHT22;21342;48.786;9.166;2022-08-26T10:17:48;33.50;80.50
33382;DHT22;21342;48.786;9.166;2022-08-26T10:20:20;33.40;78.80
33382;DHT22;21342;48.786;9.166;2022-08-26T10:22:53;34.20;77.00
33382;DHT22;21342;48.786;9.166;2022-08-26T10:25:26;34.60;76.20
33382;DHT22;21342;48.786;9.166;2022-08-26T10:28:01;34.80;74.10
33382;DHT22;21342;48.786;9.166;2022-08-26T10:30:35;34.90;72.50
33382;DHT22;21342;48.786;9.166;2022-08-26T10:33:06;34.70;72.50
33382;DHT22;21342;48.786;9.166;2022-08-26T10:35:36;35.10;69.70
33382;DHT22;21342;48.786;9.166;2022-08-26T10:38:10;34.70;68.20
33382;DHT22;21342;48.786;9.166;2022-08-26T10:40:45;34.70;68.50
33382;DHT22;21342;48.786;9.166;2022-08-26T10:43:19;34.20;69.60
33382;DHT22;21342;48.786;9.166;2022-08-26T10:45:50;35.40;68.60
33382;DHT22;21342;48.786;9.166;2022-08-26T10:48:22;35.70;66.70
33382;DHT22;21342;48.786;9.166;2022-08-26T10:50:50;35.80;66.20
33382;DHT22;21342;48.786;9.166;2022-08-26T10:53:22;35.50;64.30
33382;DHT22;21342;48.786;9.166;2022-08-26T10:55:59;35.40;64.30
33382;DHT22;21342;48.786;9.166;2022-08-26T10:58:38;34.90;65.00
33382;DHT22;21342;48.786;9.166;2022-08-26T11:01:11;35.70;64.00
33382;DHT22;21342;48.786;9.166;2022-08-26T11:04:03;36.10;63.70
33382;DHT22;21342;48.786;9.166;2022-08-26T11:06:32;36.20;62.10
33382;DHT22;21342;48.786;9.166;2022-08-26T11:09:00;35.80;61.70
33382;DHT22;21342;48.786;9.166;2022-08-26T11:11:47;35.10;63.20
33382;DHT22;21342;48.786;9.166;2022-08-26T11:14:33;34.50;63.60
33382;DHT22;21342;48.786;9.166;2022-08-26T11:17:00;34.50;65.40
33382;DHT22;21342;48.786;9.166;2022-08-26T11:20:01;33.80;66.10
33382;DHT22;21342;48.786;9.166;2022-08-26T11:22:31;34.00;66.00
33382;DHT22;21342;48.786;9.166;2022-08-26T11:25:06;34.90;64.50
33382;DHT22;21342;48.786;9.166;2022-08-26T11:28:02;35.00;63.40
33382;DHT22;21342;48.786;9.166;2022-08-26T11:30:48;34.20;64.70
33382;DHT22;21342;48.786;9.166;2022-08-26T11:36:40;32.90;67.00
33382;DHT22;21342;48.786;9.166;2022-08-26T11:39:23;32.30;67.80
33382;DHT22;21342;48.786;9.166;2022-08-26T11:41:52;32.10;69.20
33382;DHT22;21342;48.786;9.166;2022-08-26T11:44:23;31.60;69.70
33382;DHT22;21342;48.786;9.166;2022-08-26T11:46:52;31.00;71.30
33382;DHT22;21342;48.786;9.166;2022-08-26T11:49:20;30.90;73.20
33382;DHT22;21342;48.786;9.166;2022-08-26T11:51:47;31.10;72.00
33382;DHT22;21342;48.786;9.166;2022-08-26T11:54:16;31.50;72.90
33382;DHT22;21342;48.786;9.166;2022-08-26T11:56:46;32.30;72.00
33382;DHT22;21342;48.786;9.166;2022-08-26T11:59:18;33.20;70.00
33382;DHT22;21342;48.786;9.166;2022-08-26T12:01:52;33.80;68.00
33382;DHT22;21342;48.786;9.166;2022-08-26T12:04:26;34.20;68.40
33382;DHT22;21342;48.786;9.166;2022-08-26T12:06:55;33.80;65.90
33382;DHT22;21342;48.786;9.166;2022-08-26T12:09:24;33.80;66.70
33382;DHT22;21342;48.786;9.166;2022-08-26T12:11:52;34.60;66.20
33382;DHT22;21342;48.786;9.166;2022-08-26T12:14:34;35.10;64.60
33382;DHT22;21342;48.786;9.166;2022-08-26T12:17:09;34.90;63.50
33382;DHT22;21342;48.786;9.166;2022-08-26T12:19:36;34.90;63.20
33382;DHT22;21342;48.786;9.166;2022-08-26T12:22:07;35.30;61.60
33382;DHT22;21342;48.786;9.166;2022-08-26T12:24:42;34.90;63.20
33382;DHT22;21342;48.786;9.166;2022-08-26T12:27:16;35.00;61.00
33382;DHT22;21342;48.786;9.166;2022-08-26T12:29:43;34.90;61.20
33382;DHT22;21342;48.786;9.166;2022-08-26T12:32:14;34.90;60.40
33382;DHT22;21342;48.786;9.166;2022-08-26T12:34:43;35.20;60.80
33382;DHT22;21342;48.786;9.166;2022-08-26T12:37:12;34.40;62.70
33382;DHT22;21342;48.786;9.166;2022-08-26T12:39:41;33.60;63.90
33382;DHT22;21342;48.786;9.166;2022-08-26T12:42:22;32.90;65.60
33382;DHT22;21342;48.786;9.166;2022-08-26T12:44:58;32.50;67.40
33382;DHT22;21342;48.786;9.166;2022-08-26T12:47:30;33.00;66.70
33382;DHT22;21342;48.786;9.166;2022-08-26T12:50:02;32.90;65.70
33382;DHT22;21342;48.786;9.166;2022-08-26T12:52:32;32.20;67.80
33382;DHT22;21342;48.786;9.166;2022-08-26T12:55:03;32.20;68.40
33382;DHT22;21342;48.786;9.166;2022-08-26T12:57:32;32.70;68.40
33382;DHT22;21342;48.786;9.166;2022-08-26T13:00:29;33.20;67.70
33382;DHT22;21342;48.786;9.166;2022-08-26T13:02:59;33.60;65.40
33382;DHT22;21342;48.786;9.166;2022-08-26T13:05:29;33.80;66.20
33382;DHT22;21342;48.786;9.166;2022-08-26T13:08:09;33.70;65.60
33382;DHT22;21342;48.786;9.166;2022-08-26T13:10:38;33.70;65.80
33382;DHT22;21342;48.786;9.166;2022-08-26T13:13:05;33.60;65.70
33382;DHT22;21342;48.786;9.166;2022-08-26T13:15:32;33.20;66.10
33382;DHT22;21342;48.786;9.166;2022-08-26T13:18:01;32.70;67.40
33382;DHT22;21342;48.786;9.166;2022-08-26T13:20:28;32.50;68.10
33382;DHT22;21342;48.786;9.166;2022-08-26T13:22:57;31.90;68.90
33382;DHT22;21342;48.786;9.166;2022-08-26T13:25:24;31.50;69.60
33382;DHT22;21342;48.786;9.166;2022-08-26T13:27:51;31.40;70.20
33382;DHT22;21342;48.786;9.166;2022-08-26T13:35:16;30.50;69.40
33382;DHT22;21342;48.786;9.166;2022-08-26T13:37:43;30.50;71.20
33382;DHT22;21342;48.786;9.166;2022-08-26T13:40:10;30.50;70.90
33382;DHT22;21342;48.786;9.166;2022-08-26T13:42:39;30.30;70.30
33382;DHT22;21342;48.786;9.166;2022-08-26T13:45:07;30.10;72.80
33382;DHT22;21342;48.786;9.166;2022-08-26T13:47:34;29.80;74.70
33382;DHT22;21342;48.786;9.166;2022-08-26T13:50:02;29.60;77.70
33382;DHT22;21342;48.786;9.166;2022-08-26T13:52:31;29.60;74.70
33382;DHT22;21342;48.786;9.166;2022-08-26T13:54:58;29.60;72.40
33382;DHT22;21342;48.786;9.166;2022-08-26T13:57:26;29.50;74.10
33382;DHT22;21342;48.786;9.166;2022-08-26T13:59:54;29.40;75.10
33382;DHT22;21342;48.786;9.166;2022-08-26T14:02:23;29.30;77.50
33382;DHT22;21342;48.786;9.166;2022-08-26T14:04:51;29.30;75.10
33382;DHT22;21342;48.786;9.166;2022-08-26T14:07:20;29.30;76.50
33382;DHT22;21342;48.786;9.166;2022-08-26T14:12:16;29.40;74.10
33382;DHT22;21342;48.786;9.166;2022-08-26T14:14:43;29.40;73.40
33382;DHT22;21342;48.786;9.166;2022-08-26T14:17:11;29.30;72.50
33382;DHT22;21342;48.786;9.166;2022-08-26T14:19:43;29.20;72.70
33382;DHT22;21342;48.786;9.166;2022-08-26T14:22:11;29.20;73.40
33382;DHT22;21342;48.786;9.166;2022-08-26T14:24:38;29.10;72.80
33382;DHT22;21342;48.786;9.166;2022-08-26T14:27:07;29.10;72.90
33382;DHT22;21342;48.786;9.166;2022-08-26T14:29:34;29.20;73.70
33382;DHT22;21342;48.786;9.166;2022-08-26T14:32:05;29.20;73.40
33382;DHT22;21342;48.786;9.166;2022-08-26T14:34:36;29.20;73.30
33382;DHT22;21342;48.786;9.166;2022-08-26T14:37:03;29.10;73.80
33382;DHT22;21342;48.786;9.166;2022-08-26T14:39:31;29.00;74.00
33382;DHT22;21342;48.786;9.166;2022-08-26T14:41:58;29.00;74.00
33382;DHT22;21342;48.786;9.166;2022-08-26T14:44:29;29.00;73.60
33382;DHT22;21342;48.786;9.166;2022-08-26T14:46:59;29.00;74.40
33382;DHT22;21342;48.786;9.166;2022-08-26T14:49:27;29.00;73.40
33382;DHT22;21342;48.786;9.166;2022-08-26T14:51:55;29.00;73.70
33382;DHT22;21342;48.786;9.166;2022-08-26T14:54:22;28.90;74.00
33382;DHT22;21342;48.786;9.166;2022-08-26T14:56:50;29.00;73.80
33382;DHT22;21342;48.786;9.166;2022-08-26T14:59:21;29.00;74.10
33382;DHT22;21342;48.786;9.166;2022-08-26T15:01:51;29.00;74.70
33382;DHT22;21342;48.786;9.166;2022-08-26T15:04:19;28.90;74.50
33382;DHT22;21342;48.786;9.166;2022-08-26T15:06:47;28.90;75.20
33382;DHT22;21342;48.786;9.166;2022-08-26T15:09:14;28.80;74.70
33382;DHT22;21342;48.786;9.166;2022-08-26T15:11:42;28.80;74.80
33382;DHT22;21342;48.786;9.166;2022-08-26T15:14:09;28.80;75.60
33382;DHT22;21342;48.786;9.166;2022-08-26T15:16:37;28.80;75.70
33382;DHT22;21342;48.786;9.166;2022-08-26T15:19:06;28.80;75.10
33382;DHT22;21342;48.786;9.166;2022-08-26T15:21:34;28.80;75.20
33382;DHT22;21342;48.786;9.166;2022-08-26T15:24:02;28.80;75.00
33382;DHT22;21342;48.786;9.166;2022-08-26T15:26:31;28.70;75.10
33382;DHT22;21342;48.786;9.166;2022-08-26T15:28:58;28.50;75.40
33382;DHT22;21342;48.786;9.166;2022-08-26T15:31:27;28.10;82.70
33382;DHT22;21342;48.786;9.166;2022-08-26T15:33:56;27.80;85.40
33382;DHT22;21342;48.786;9.166;2022-08-26T15:36:26;27.60;85.70
33382;DHT22;21342;48.786;9.166;2022-08-26T15:38:54;27.60;85.20
33382;DHT22;21342;48.786;9.166;2022-08-26T15:41:21;27.60;90.40
33382;DHT22;21342;48.786;9.166;2022-08-26T15:43:50;27.50;89.80
33382;DHT22;21342;48.786;9.166;2022-08-26T15:46:18;27.40;90.20
33382;DHT22;21342;48.786;9.166;2022-08-26T15:48:45;27.40;88.30
33382;DHT22;21342;48.786;9.166;2022-08-26T15:51:19;27.30;90.40
33382;DHT22;21342;48.786;9.166;2022-08-26T15:53:49;27.10;90.30
33382;DHT22;21342;48.786;9.166;2022-08-26T15:56:17;27.00;90.20
33382;DHT22;21342;48.786;9.166;2022-08-26T15:58:44;26.60;90.40
33382;DHT22;21342;48.786;9.166;2022-08-26T16:01:11;26.30;91.10